Time;durP1;ratioP1;P1;durP2;ratioP2;P2;SDS_P1;SDS_P2;PMS_P1;PMS_P2;Temp;Humidity;BMP_temperature;BMP_pressure;BME280_temperature;BME280_humidity;BME280_pressure;Samples;Min_cycle;Max_cycle;Signal;HPM_P1;HPM_P2
2021/06/28 00:00:15;;;;;;;6.00;5.60;;;;;;;;;;2040918;29;20163;-59
2021/06/28 00:01:16;;;;;;;6.15;5.63;;;;;;;;;;2040213;29;20269;-60
2021/06/28 00:02:17;;;;;;;5.35;5.05;;;;;;;;;;2045763;28;20297;-59
2021/06/28 00:03:17;;;;;;;6.32;5.80;;;;;;;;;;2044739;29;20175;-60
2021/06/28 00:04:17;;;;;;;5.70;5.30;;;;;;;;;;2051063;28;20170;-60
2021/06/28 00:05:18;;;;;;;5.82;5.40;;;;;;;;;;2051830;28;20212;-57
2021/06/28 00:06:19;;;;;;;6.05;5.55;;;;;;;;;;2038465;28;20514;-60
2021/06/28 00:07:19;;;;;;;6.38;5.90;;;;;;;;;;2041677;29;20177;-58
2021/06/28 00:08:20;;;;;;;6.10;5.70;;;;;;;;;;2043492;29;20211;-60
2021/06/28 00:09:20;;;;;;;6.30;5.80;;;;;;;;;;2044885;29;20266;-58
2021/06/28 00:10:25;;;;;;;5.88;5.47;;;;;;;;;;2043698;28;20203;-59
2021/06/28 00:11:26;;;;;;;6.13;5.63;;;;;;;;;;2044857;29;20155;-60
2021/06/28 00:12:26;;;;;;;5.55;5.15;;;;;;;;;;2046780;28;20179;-60
2021/06/28 00:13:27;;;;;;;7.00;5.60;;;;;;;;;;2042741;29;20172;-60
2021/06/28 00:14:27;;;;;;;5.97;5.47;;;;;;;;;;2044297;29;20169;-59
2021/06/28 00:15:29;;;;;;;5.43;5.03;;;;;;;;;;2046541;29;20621;-58
2021/06/28 00:16:29;;;;;;;5.80;5.38;;;;;;;;;;2039992;28;20164;-59
2021/06/28 00:17:29;;;;;;;4.90;4.57;;;;;;;;;;2046031;29;20608;-57
2021/06/28 00:18:30;;;;;;;5.22;4.82;;;;;;;;;;2042049;29;20560;-59
2021/06/28 00:19:30;;;;;;;5.50;5.07;;;;;;;;;;2039037;29;20533;-58
2021/06/28 00:20:33;;;;;;;5.82;5.32;;;;;;;;;;2051015;28;20266;-58
2021/06/28 00:21:33;;;;;;;6.38;5.78;;;;;;;;;;2046346;29;20169;-58
2021/06/28 00:22:34;;;;;;;6.93;6.32;;;;;;;;;;2041751;29;20182;-58
2021/06/28 00:23:35;;;;;;;6.40;5.90;;;;;;;;;;2034047;29;20184;-59
2021/06/28 00:24:35;;;;;;;5.82;5.43;;;;;;;;;;2045608;29;20167;-58
2021/06/28 00:25:36;;;;;;;5.60;5.10;;;;;;;;;;2041028;28;20207;-58
2021/06/28 00:26:36;;;;;;;6.28;5.68;;;;;;;;;;2046597;29;20194;-58
2021/06/28 00:27:37;;;;;;;6.13;5.63;;;;;;;;;;2041159;29;20175;-57
2021/06/28 00:28:37;;;;;;;6.22;5.70;;;;;;;;;;2046829;29;20602;-60
2021/06/28 00:29:37;;;;;;;6.15;5.65;;;;;;;;;;2047769;29;20171;-61
2021/06/28 00:30:41;;;;;;;6.32;5.78;;;;;;;;;;2042435;29;20548;-60
2021/06/28 00:31:41;;;;;;;6.35;5.78;;;;;;;;;;2047727;29;20167;-61
2021/06/28 00:32:41;;;;;;;6.38;5.88;;;;;;;;;;2037793;29;20184;-60
2021/06/28 00:33:42;;;;;;;6.30;5.90;;;;;;;;;;2041071;29;20227;-61
2021/06/28 00:34:42;;;;;;;6.38;5.80;;;;;;;;;;2043190;29;20186;-61
2021/06/28 00:35:43;;;;;;;5.85;5.35;;;;;;;;;;2047929;28;20190;-61
2021/06/28 00:36:43;;;;;;;5.65;5.22;;;;;;;;;;2043149;28;20587;-60
2021/06/28 00:37:44;;;;;;;5.60;5.13;;;;;;;;;;2048024;29;20578;-59
2021/06/28 00:38:44;;;;;;;5.65;5.25;;;;;;;;;;2040140;29;20619;-59
2021/06/28 00:39:44;;;;;;;5.43;5.03;;;;;;;;;;2037316;29;20542;-60
2021/06/28 00:40:45;;;;;;;5.95;5.50;;;;;;;;;;2047857;28;20202;-61
2021/06/28 00:41:45;;;;;;;5.72;5.28;;;;;;;;;;2039641;29;20168;-60
2021/06/28 00:42:46;;;;;;;6.53;6.03;;;;;;;;;;2037110;28;20649;-60
2021/06/28 00:43:46;;;;;;;5.70;5.30;;;;;;;;;;2047805;28;20250;-61
2021/06/28 00:44:46;;;;;;;6.35;5.95;;;;;;;;;;2034726;29;20239;-60
2021/06/28 00:45:47;;;;;;;5.97;5.47;;;;;;;;;;2055742;28;20528;-59
2021/06/28 00:46:47;;;;;;;5.75;5.35;;;;;;;;;;2048493;28;20655;-60
2021/06/28 00:47:47;;;;;;;6.90;6.40;;;;;;;;;;2036023;28;20195;-59
2021/06/28 00:48:47;;;;;;;5.88;5.43;;;;;;;;;;2049614;28;20162;-58
2021/06/28 00:49:48;;;;;;;5.45;5.15;;;;;;;;;;2037288;29;20191;-60
2021/06/28 00:50:50;;;;;;;5.88;5.47;;;;;;;;;;2045198;28;20218;-60
2021/06/28 00:51:56;;;;;;;6.00;5.43;;;;;;;;;;2048312;28;20817;-59
2021/06/28 00:53:01;;;;;;;6.63;6.13;;;;;;;;;;2043130;29;20188;-57
2021/06/28 00:54:02;;;;;;;6.22;5.78;;;;;;;;;;2039412;29;20227;-60
2021/06/28 00:55:02;;;;;;;5.65;5.25;;;;;;;;;;2041093;28;20299;-59
2021/06/28 00:56:09;;;;;;;6.50;6.00;;;;;;;;;;2047786;28;20167;-60
2021/06/28 00:57:09;;;;;;;8.10;6.00;;;;;;;;;;2040975;29;20298;-60
2021/06/28 00:58:10;;;;;;;6.78;6.18;;;;;;;;;;2046644;28;20175;-59
2021/06/28 00:59:11;;;;;;;6.13;5.72;;;;;;;;;;2041385;29;20529;-60
2021/06/28 01:00:11;;;;;;;6.22;5.80;;;;;;;;;;2048157;28;20681;-59
2021/06/28 01:01:12;;;;;;;6.53;6.03;;;;;;;;;;2052608;28;20171;-60
2021/06/28 01:02:12;;;;;;;7.03;6.50;;;;;;;;;;2049832;28;20182;-59
2021/06/28 01:03:12;;;;;;;6.22;5.82;;;;;;;;;;2050093;28;20214;-61
2021/06/28 01:04:13;;;;;;;6.80;6.30;;;;;;;;;;2051128;29;20277;-57
2021/06/28 01:05:16;;;;;;;7.90;7.07;;;;;;;;;;2050718;28;20186;-60
2021/06/28 01:06:16;;;;;;;7.85;7.25;;;;;;;;;;2051073;28;20186;-57
2021/06/28 01:07:16;;;;;;;7.30;6.80;;;;;;;;;;2050887;29;20190;-56
2021/06/28 01:08:17;;;;;;;7.63;7.03;;;;;;;;;;2050408;28;20177;-55
2021/06/28 01:09:17;;;;;;;7.97;7.28;;;;;;;;;;2050235;28;20190;-58
2021/06/28 01:10:18;;;;;;;8.07;7.47;;;;;;;;;;2050278;29;20163;-58
2021/06/28 01:11:19;;;;;;;7.65;6.90;;;;;;;;;;2049279;29;20193;-53
2021/06/28 01:12:19;;;;;;;7.63;6.93;;;;;;;;;;2049718;29;20170;-56
2021/06/28 01:13:19;;;;;;;7.07;6.47;;;;;;;;;;2050243;29;20159;-58
2021/06/28 01:14:20;;;;;;;8.48;7.78;;;;;;;;;;2050318;28;20237;-54
2021/06/28 01:15:21;;;;;;;7.35;6.85;;;;;;;;;;2050070;28;20191;-56
2021/06/28 01:16:22;;;;;;;7.40;6.70;;;;;;;;;;2049598;29;20182;-57
2021/06/28 01:17:22;;;;;;;8.13;7.47;;;;;;;;;;2049367;29;20194;-59
2021/06/28 01:18:23;;;;;;;7.45;6.78;;;;;;;;;;2049348;29;20187;-56
2021/06/28 01:19:26;;;;;;;8.07;7.28;;;;;;;;;;2041761;29;20186;-58
2021/06/28 01:20:30;;;;;;;7.20;6.50;;;;;;;;;;2042311;29;20800;-57
2021/06/28 01:21:32;;;;;;;7.95;7.25;;;;;;;;;;2041911;29;20250;-57
2021/06/28 01:22:33;;;;;;;8.05;7.32;;;;;;;;;;2042316;29;20164;-57
2021/06/28 01:23:34;;;;;;;8.73;7.93;;;;;;;;;;2042207;29;20620;-58
2021/06/28 01:24:34;;;;;;;8.80;8.07;;;;;;;;;;2042223;29;20175;-57
2021/06/28 01:25:34;;;;;;;8.52;7.82;;;;;;;;;;2042048;29;20204;-58
2021/06/28 01:26:35;;;;;;;8.70;7.90;;;;;;;;;;2041730;29;20543;-59
2021/06/28 01:27:35;;;;;;;9.02;7.93;;;;;;;;;;2041847;29;20181;-62
2021/06/28 01:28:36;;;;;;;9.68;8.77;;;;;;;;;;2042877;29;20167;-58
2021/06/28 01:29:36;;;;;;;9.35;8.50;;;;;;;;;;2049488;28;20637;-59
2021/06/28 01:30:37;;;;;;;9.05;8.15;;;;;;;;;;2046280;29;20170;-61
2021/06/28 01:31:37;;;;;;;10.70;8.88;;;;;;;;;;2047248;29;20179;-60
2021/06/28 01:32:38;;;;;;;8.88;8.07;;;;;;;;;;2049413;28;20190;-60
2021/06/28 01:33:39;;;;;;;9.50;8.60;;;;;;;;;;2040780;29;20192;-60
2021/06/28 01:34:39;;;;;;;9.88;9.07;;;;;;;;;;2048062;29;20183;-60
2021/06/28 01:35:40;;;;;;;10.45;9.43;;;;;;;;;;2041510;28;20196;-59
2021/06/28 01:36:40;;;;;;;10.30;9.10;;;;;;;;;;2048738;29;20177;-59
2021/06/28 01:37:41;;;;;;;9.35;8.45;;;;;;;;;;2045550;29;20194;-60
2021/06/28 01:38:41;;;;;;;10.18;9.15;;;;;;;;;;2048987;29;20702;-60
2021/06/28 01:39:41;;;;;;;9.90;9.10;;;;;;;;;;2041991;29;20263;-60
2021/06/28 01:40:42;;;;;;;10.13;9.13;;;;;;;;;;2041334;29;20180;-61
2021/06/28 01:41:42;;;;;;;10.43;9.43;;;;;;;;;;2043285;28;20198;-61
2021/06/28 01:42:43;;;;;;;10.73;9.48;;;;;;;;;;2050401;29;20207;-61
2021/06/28 01:43:44;;;;;;;10.15;9.15;;;;;;;;;;2040401;29;20181;-61
2021/06/28 01:44:44;;;;;;;9.25;8.55;;;;;;;;;;2048719;28;20186;-61
2021/06/28 01:45:45;;;;;;;10.10;8.77;;;;;;;;;;2051339;28;20273;-61
2021/06/28 01:46:45;;;;;;;9.50;8.77;;;;;;;;;;2049349;28;20167;-61
2021/06/28 01:47:46;;;;;;;9.20;8.38;;;;;;;;;;2036468;29;20187;-60
2021/06/28 01:48:46;;;;;;;9.32;8.52;;;;;;;;;;2049182;29;20175;-61
2021/06/28 01:49:46;;;;;;;9.00;8.10;;;;;;;;;;2036357;29;20806;-60
2021/06/28 01:50:47;;;;;;;8.95;8.15;;;;;;;;;;2045495;29;20640;-61
2021/06/28 01:51:47;;;;;;;8.35;7.65;;;;;;;;;;2048668;29;20166;-61
2021/06/28 01:52:48;;;;;;;8.93;8.23;;;;;;;;;;2041489;29;20190;-60
2021/06/28 01:53:48;;;;;;;9.48;8.57;;;;;;;;;;2049084;29;20179;-62
2021/06/28 01:54:48;;;;;;;9.48;8.48;;;;;;;;;;2041687;29;20178;-61
2021/06/28 01:55:49;;;;;;;9.13;8.23;;;;;;;;;;2049251;29;20183;-61
2021/06/28 01:56:49;;;;;;;10.52;9.55;;;;;;;;;;2038368;29;20660;-60
2021/06/28 01:57:53;;;;;;;10.13;9.13;;;;;;;;;;2048984;28;20173;-61
2021/06/28 01:58:54;;;;;;;9.13;8.30;;;;;;;;;;2042468;28;20186;-61
2021/06/28 01:59:55;;;;;;;9.52;8.50;;;;;;;;;;2043528;29;20172;-59
2021/06/28 02:00:55;;;;;;;9.27;8.20;;;;;;;;;;2044868;29;20656;-58
2021/06/28 02:01:56;;;;;;;8.52;7.82;;;;;;;;;;2054639;28;20268;-59
2021/06/28 02:02:56;;;;;;;9.18;8.27;;;;;;;;;;2042707;29;20222;-54
2021/06/28 02:03:56;;;;;;;9.20;8.02;;;;;;;;;;2047278;28;20502;-58
2021/06/28 02:04:56;;;;;;;9.07;8.23;;;;;;;;;;2042221;29;20180;-56
2021/06/28 02:05:58;;;;;;;9.10;8.27;;;;;;;;;;2042874;28;20255;-59
2021/06/28 02:06:59;;;;;;;9.93;9.02;;;;;;;;;;2047320;28;20189;-59
2021/06/28 02:08:00;;;;;;;9.18;8.38;;;;;;;;;;2037075;29;20260;-60
2021/06/28 02:09:00;;;;;;;8.50;7.80;;;;;;;;;;2046262;29;20175;-58
2021/06/28 02:10:01;;;;;;;9.15;8.30;;;;;;;;;;2055601;28;20786;-58
2021/06/28 02:11:03;;;;;;;9.48;8.77;;;;;;;;;;2046533;28;20168;-55
2021/06/28 02:12:04;;;;;;;9.13;8.25;;;;;;;;;;2038590;29;20188;-59
2021/06/28 02:13:04;;;;;;;9.20;8.40;;;;;;;;;;2046309;28;20222;-58
2021/06/28 02:14:04;;;;;;;9.57;8.77;;;;;;;;;;2043827;29;20282;-59
2021/06/28 02:15:05;;;;;;;9.60;8.80;;;;;;;;;;2045958;28;20187;-60
2021/06/28 02:16:05;;;;;;;9.23;8.38;;;;;;;;;;2043527;29;20195;-58
2021/06/28 02:17:06;;;;;;;11.00;9.95;;;;;;;;;;2051928;28;20178;-58
2021/06/28 02:18:06;;;;;;;9.50;8.70;;;;;;;;;;2051835;28;20647;-57
2021/06/28 02:19:06;;;;;;;9.77;8.98;;;;;;;;;;2047407;28;20627;-58
2021/06/28 02:20:07;;;;;;;9.27;8.52;;;;;;;;;;2048909;28;20591;-58
2021/06/28 02:21:07;;;;;;;9.45;8.65;;;;;;;;;;2043247;28;20312;-59
2021/06/28 02:22:08;;;;;;;10.13;9.20;;;;;;;;;;2039316;29;20198;-59
2021/06/28 02:23:17;;;;;;;9.18;8.40;;;;;;;;;;2045666;29;20175;-59
2021/06/28 02:24:17;;;;;;;10.45;9.55;;;;;;;;;;2045874;29;20179;-60
2021/06/28 02:25:18;;;;;;;10.30;9.40;;;;;;;;;;2047276;28;20198;-59
2021/06/28 02:26:18;;;;;;;10.77;9.88;;;;;;;;;;2043624;29;20246;-59
2021/06/28 02:27:18;;;;;;;11.07;10.07;;;;;;;;;;2044457;29;20174;-54
2021/06/28 02:28:19;;;;;;;11.38;10.27;;;;;;;;;;2044285;28;20164;-59
2021/06/28 02:29:19;;;;;;;10.32;9.43;;;;;;;;;;2043532;29;20164;-58
2021/06/28 02:30:19;;;;;;;11.20;9.90;;;;;;;;;;2048349;28;20178;-58
2021/06/28 02:31:20;;;;;;;10.07;9.27;;;;;;;;;;2044510;29;20167;-57
2021/06/28 02:32:21;;;;;;;10.82;9.98;;;;;;;;;;2044552;29;20222;-60
2021/06/28 02:33:21;;;;;;;10.40;9.52;;;;;;;;;;2043056;29;20174;-60
2021/06/28 02:34:21;;;;;;;9.77;9.00;;;;;;;;;;2043653;29;20168;-58
2021/06/28 02:35:22;;;;;;;9.70;8.90;;;;;;;;;;2043045;29;20195;-57
2021/06/28 02:36:23;;;;;;;10.23;9.27;;;;;;;;;;2042938;28;20174;-59
2021/06/28 02:37:23;;;;;;;10.90;9.88;;;;;;;;;;2043372;29;20642;-61
2021/06/28 02:38:24;;;;;;;10.68;9.80;;;;;;;;;;2042572;29;20175;-58
2021/06/28 02:39:24;;;;;;;11.20;10.23;;;;;;;;;;2045056;29;20166;-57
2021/06/28 02:40:24;;;;;;;10.95;9.55;;;;;;;;;;2046179;29;20608;-57
2021/06/28 02:41:25;;;;;;;11.45;10.63;;;;;;;;;;2045622;29;20170;-59
2021/06/28 02:42:25;;;;;;;11.38;10.38;;;;;;;;;;2040989;29;20652;-60
2021/06/28 02:43:25;;;;;;;10.82;9.75;;;;;;;;;;2043762;29;20167;-58
2021/06/28 02:44:26;;;;;;;10.75;9.70;;;;;;;;;;2040796;29;20194;-61
2021/06/28 02:45:26;;;;;;;10.50;9.60;;;;;;;;;;2043954;29;20229;-61
2021/06/28 02:46:26;;;;;;;10.45;9.45;;;;;;;;;;2050466;28;20170;-61
2021/06/28 02:47:27;;;;;;;11.60;10.50;;;;;;;;;;2053674;28;20173;-60
2021/06/28 02:48:27;;;;;;;11.48;10.50;;;;;;;;;;2039968;28;20234;-60
2021/06/28 02:49:27;;;;;;;11.30;10.30;;;;;;;;;;2043290;29;20217;-60
2021/06/28 02:50:28;;;;;;;9.27;8.57;;;;;;;;;;2045553;28;20531;-60
2021/06/28 02:51:28;;;;;;;10.57;9.60;;;;;;;;;;2046638;29;20682;-60
2021/06/28 02:52:28;;;;;;;12.55;10.43;;;;;;;;;;2046240;29;20353;-60
2021/06/28 02:53:29;;;;;;;11.43;10.43;;;;;;;;;;2049311;28;20628;-58
2021/06/28 02:54:30;;;;;;;12.45;11.43;;;;;;;;;;2048910;28;20163;-60
2021/06/28 02:55:31;;;;;;;12.13;10.80;;;;;;;;;;2048062;28;20217;-60
2021/06/28 02:56:31;;;;;;;11.70;10.70;;;;;;;;;;2048891;29;20177;-59
2021/06/28 02:57:31;;;;;;;11.25;10.27;;;;;;;;;;2049286;28;20596;-60
2021/06/28 02:58:31;;;;;;;11.73;10.65;;;;;;;;;;2049430;28;20499;-60
2021/06/28 02:59:32;;;;;;;14.75;12.45;;;;;;;;;;2048529;28;20178;-59
2021/06/28 03:00:32;;;;;;;14.23;12.15;;;;;;;;;;2049376;28;20570;-59
2021/06/28 03:01:32;;;;;;;12.32;11.13;;;;;;;;;;2056249;28;20197;-59
2021/06/28 03:02:33;;;;;;;12.32;11.32;;;;;;;;;;2048676;28;20190;-60
2021/06/28 03:03:33;;;;;;;12.95;11.75;;;;;;;;;;2048625;29;20163;-59
2021/06/28 03:04:33;;;;;;;11.50;10.60;;;;;;;;;;2048613;29;20171;-59
2021/06/28 03:05:34;;;;;;;11.90;10.75;;;;;;;;;;2049253;28;20202;-60
2021/06/28 03:06:34;;;;;;;11.73;10.73;;;;;;;;;;2049270;28;20223;-60
2021/06/28 03:07:34;;;;;;;11.65;10.45;;;;;;;;;;2049258;28;20567;-60
2021/06/28 03:08:34;;;;;;;12.30;11.13;;;;;;;;;;2049248;28;20251;-60
2021/06/28 03:09:35;;;;;;;12.30;11.05;;;;;;;;;;2049459;28;20167;-60
2021/06/28 03:10:36;;;;;;;11.52;10.63;;;;;;;;;;2049094;28;20522;-60
2021/06/28 03:11:36;;;;;;;14.48;12.85;;;;;;;;;;2047211;28;20178;-58
2021/06/28 03:12:37;;;;;;;16.02;14.35;;;;;;;;;;2041347;29;20594;-60
2021/06/28 03:13:38;;;;;;;15.57;13.90;;;;;;;;;;2041338;29;20167;-60
2021/06/28 03:14:39;;;;;;;13.38;12.27;;;;;;;;;;2041266;29;20202;-60
2021/06/28 03:15:39;;;;;;;15.90;14.20;;;;;;;;;;2041322;29;20203;-61
2021/06/28 03:16:39;;;;;;;15.23;13.65;;;;;;;;;;2041385;29;20636;-61
2021/06/28 03:17:40;;;;;;;13.82;12.52;;;;;;;;;;2041651;29;20582;-60
2021/06/28 03:18:40;;;;;;;13.82;12.52;;;;;;;;;;2041364;29;20629;-61
2021/06/28 03:19:40;;;;;;;11.43;10.45;;;;;;;;;;2041405;29;20218;-60
2021/06/28 03:20:41;;;;;;;14.32;13.02;;;;;;;;;;2047562;29;20163;-61
2021/06/28 03:21:41;;;;;;;15.10;13.60;;;;;;;;;;2043011;28;20195;-60
2021/06/28 03:22:42;;;;;;;16.60;14.82;;;;;;;;;;2041932;28;20171;-59
2021/06/28 03:23:43;;;;;;;14.07;12.77;;;;;;;;;;2045699;28;20194;-60
2021/06/28 03:24:44;;;;;;;14.25;12.40;;;;;;;;;;2048433;28;20554;-60
2021/06/28 03:25:44;;;;;;;14.48;12.98;;;;;;;;;;2048289;28;20194;-60
2021/06/28 03:26:44;;;;;;;14.65;13.00;;;;;;;;;;2040715;29;20180;-60
2021/06/28 03:27:45;;;;;;;14.05;12.73;;;;;;;;;;2049118;28;20218;-61
2021/06/28 03:28:45;;;;;;;12.70;11.27;;;;;;;;;;2040891;29;20206;-60
2021/06/28 03:29:45;;;;;;;12.05;11.10;;;;;;;;;;2047957;28;20175;-60
2021/06/28 03:30:45;;;;;;;13.10;11.88;;;;;;;;;;2048562;29;20702;-60
2021/06/28 03:31:46;;;;;;;12.82;11.73;;;;;;;;;;2041103;29;20766;-60
2021/06/28 03:32:46;;;;;;;13.02;11.70;;;;;;;;;;2048344;28;20253;-61
2021/06/28 03:33:46;;;;;;;12.52;11.38;;;;;;;;;;2041524;29;20246;-60
2021/06/28 03:34:46;;;;;;;12.38;11.38;;;;;;;;;;2047482;28;20186;-60
2021/06/28 03:35:47;;;;;;;12.10;11.05;;;;;;;;;;2041375;29;20219;-60
2021/06/28 03:36:47;;;;;;;12.40;11.15;;;;;;;;;;2045959;28;20159;-61
2021/06/28 03:37:47;;;;;;;12.88;11.75;;;;;;;;;;2048060;28;20173;-61
2021/06/28 03:38:48;;;;;;;12.77;11.65;;;;;;;;;;2039277;29;20550;-61
2021/06/28 03:39:48;;;;;;;12.88;11.77;;;;;;;;;;2046839;29;20650;-59
2021/06/28 03:40:48;;;;;;;12.82;11.63;;;;;;;;;;2048155;28;20226;-60
2021/06/28 03:41:49;;;;;;;12.43;11.23;;;;;;;;;;2040835;29;20163;-60
2021/06/28 03:42:49;;;;;;;11.63;10.52;;;;;;;;;;2048183;28;20201;-59
2021/06/28 03:43:49;;;;;;;12.77;10.55;;;;;;;;;;2040488;29;20180;-60
2021/06/28 03:44:49;;;;;;;12.60;10.88;;;;;;;;;;2047340;28;20159;-60
2021/06/28 03:45:50;;;;;;;12.48;11.35;;;;;;;;;;2042493;29;20187;-60
2021/06/28 03:46:50;;;;;;;11.40;10.32;;;;;;;;;;2048279;28;20171;-61
2021/06/28 03:47:50;;;;;;;11.88;10.77;;;;;;;;;;2048317;28;20249;-60
2021/06/28 03:48:50;;;;;;;12.57;11.38;;;;;;;;;;2044750;28;20187;-61
2021/06/28 03:49:51;;;;;;;11.95;10.40;;;;;;;;;;2048285;28;20170;-62
2021/06/28 03:50:53;;;;;;;12.13;10.98;;;;;;;;;;2048963;28;20183;-61
2021/06/28 03:51:54;;;;;;;11.45;10.55;;;;;;;;;;2035331;29;20191;-60
2021/06/28 03:52:54;;;;;;;11.85;10.73;;;;;;;;;;2046636;28;20257;-61
2021/06/28 03:53:55;;;;;;;12.57;11.45;;;;;;;;;;2042622;28;20518;-60
2021/06/28 03:54:55;;;;;;;11.05;10.15;;;;;;;;;;2047202;28;20174;-60
2021/06/28 03:55:56;;;;;;;12.02;10.95;;;;;;;;;;2042359;29;20724;-59
2021/06/28 03:56:57;;;;;;;11.23;10.10;;;;;;;;;;2041293;28;20176;-59
2021/06/28 03:57:58;;;;;;;10.88;9.88;;;;;;;;;;2046880;28;20166;-61
2021/06/28 03:58:58;;;;;;;10.90;9.98;;;;;;;;;;2042760;29;20195;-61
2021/06/28 04:00:00;;;;;;;10.82;9.95;;;;;;;;;;2048924;29;20279;-60
2021/06/28 04:01:01;;;;;;;11.45;10.45;;;;;;;;;;2043743;28;20199;-61
2021/06/28 04:02:01;;;;;;;10.57;9.70;;;;;;;;;;2048911;28;20171;-61
2021/06/28 04:03:03;;;;;;;10.50;9.63;;;;;;;;;;2046354;29;20230;-59
2021/06/28 04:04:03;;;;;;;10.43;9.43;;;;;;;;;;2040864;29;20311;-60
2021/06/28 04:05:05;;;;;;;11.85;10.85;;;;;;;;;;2041309;28;21819;-60
2021/06/28 04:06:06;;;;;;;11.27;10.32;;;;;;;;;;2038863;29;20662;-60
2021/06/28 04:07:06;;;;;;;11.75;10.85;;;;;;;;;;2048207;29;20185;-59
2021/06/28 04:08:07;;;;;;;10.80;9.80;;;;;;;;;;2047913;29;20202;-59
2021/06/28 04:09:07;;;;;;;11.68;10.68;;;;;;;;;;2039390;29;20190;-59
2021/06/28 04:10:08;;;;;;;12.00;10.80;;;;;;;;;;2045376;28;20194;-59
2021/06/28 04:11:08;;;;;;;12.18;11.10;;;;;;;;;;2041966;29;20533;-59
2021/06/28 04:12:12;;;;;;;11.60;10.32;;;;;;;;;;2038606;29;20248;-59
2021/06/28 04:13:12;;;;;;;11.30;10.40;;;;;;;;;;2044781;28;20174;-59
2021/06/28 04:14:13;;;;;;;12.38;11.27;;;;;;;;;;2041308;29;21860;-61
2021/06/28 04:15:14;;;;;;;12.35;11.25;;;;;;;;;;2044773;28;20233;-60
2021/06/28 04:16:14;;;;;;;12.57;11.32;;;;;;;;;;2041265;28;20263;-60
2021/06/28 04:17:14;;;;;;;11.80;10.80;;;;;;;;;;2043109;28;20190;-62
2021/06/28 04:18:15;;;;;;;12.82;11.73;;;;;;;;;;2044203;29;20194;-61
2021/06/28 04:19:15;;;;;;;11.93;10.95;;;;;;;;;;2042715;28;20235;-61
2021/06/28 04:20:17;;;;;;;13.98;12.70;;;;;;;;;;2040720;29;20171;-61
2021/06/28 04:21:17;;;;;;;13.68;12.30;;;;;;;;;;2043805;29;20172;-59
2021/06/28 04:22:18;;;;;;;16.25;12.88;;;;;;;;;;2044062;28;20180;-61
2021/06/28 04:23:18;;;;;;;13.90;12.52;;;;;;;;;;2042238;28;20608;-60
2021/06/28 04:24:18;;;;;;;14.10;12.82;;;;;;;;;;2049499;28;20167;-59
2021/06/28 04:25:19;;;;;;;14.70;13.23;;;;;;;;;;2049184;28;20246;-60
2021/06/28 04:26:19;;;;;;;13.20;12.00;;;;;;;;;;2042949;29;20170;-55
2021/06/28 04:27:20;;;;;;;12.65;11.65;;;;;;;;;;2045203;28;20680;-57
2021/06/28 04:28:20;;;;;;;12.57;11.38;;;;;;;;;;2046441;29;20651;-56
2021/06/28 04:29:20;;;;;;;13.63;12.23;;;;;;;;;;2049217;28;20171;-60
2021/06/28 04:30:21;;;;;;;13.07;11.98;;;;;;;;;;2044516;28;20651;-59
2021/06/28 04:31:21;;;;;;;13.00;11.80;;;;;;;;;;2045520;29;20659;-56
2021/06/28 04:32:21;;;;;;;13.43;12.13;;;;;;;;;;2047963;28;20167;-57
2021/06/28 04:33:22;;;;;;;14.25;13.05;;;;;;;;;;2047318;28;20226;-58
2021/06/28 04:34:22;;;;;;;14.73;13.27;;;;;;;;;;2047944;28;20636;-59
2021/06/28 04:35:24;;;;;;;13.48;12.25;;;;;;;;;;2045756;28;20274;-60
2021/06/28 04:36:24;;;;;;;13.10;12.00;;;;;;;;;;2047886;28;20186;-59
2021/06/28 04:37:25;;;;;;;13.10;11.80;;;;;;;;;;2036796;29;20186;-59
2021/06/28 04:38:25;;;;;;;13.80;12.50;;;;;;;;;;2043792;28;20271;-56
2021/06/28 04:39:26;;;;;;;13.85;12.50;;;;;;;;;;2046957;29;20170;-54
2021/06/28 04:40:28;;;;;;;13.43;12.23;;;;;;;;;;2043452;28;20243;-58
2021/06/28 04:41:29;;;;;;;14.77;13.23;;;;;;;;;;2046955;29;20989;-59
2021/06/28 04:42:29;;;;;;;13.98;12.82;;;;;;;;;;2046815;28;20167;-60
2021/06/28 04:43:29;;;;;;;13.85;12.65;;;;;;;;;;2046588;29;20170;-57
2021/06/28 04:44:29;;;;;;;13.20;12.10;;;;;;;;;;2044527;28;20660;-60
2021/06/28 04:45:30;;;;;;;14.35;13.05;;;;;;;;;;2040846;29;20270;-60
2021/06/28 04:46:30;;;;;;;13.82;12.70;;;;;;;;;;2045497;29;20650;-60
2021/06/28 04:47:30;;;;;;;14.13;12.90;;;;;;;;;;2047987;29;20250;-60
2021/06/28 04:48:31;;;;;;;14.15;12.75;;;;;;;;;;2043122;28;20644;-60
2021/06/28 04:49:31;;;;;;;14.13;12.75;;;;;;;;;;2042985;29;20241;-60
2021/06/28 04:50:31;;;;;;;13.57;12.38;;;;;;;;;;2043764;29;20399;-60
2021/06/28 04:51:33;;;;;;;13.38;12.15;;;;;;;;;;2044028;29;20663;-60
2021/06/28 04:52:35;;;;;;;13.35;12.02;;;;;;;;;;2048738;29;20260;-60
2021/06/28 04:53:35;;;;;;;13.93;12.52;;;;;;;;;;2042533;28;20164;-60
2021/06/28 04:54:35;;;;;;;13.15;11.95;;;;;;;;;;2048807;29;20522;-60
2021/06/28 04:55:36;;;;;;;14.80;13.40;;;;;;;;;;2035523;28;20203;-59
2021/06/28 04:56:36;;;;;;;12.88;11.77;;;;;;;;;;2043553;29;20184;-59
2021/06/28 04:57:36;;;;;;;13.93;12.73;;;;;;;;;;2041220;29;20188;-61
2021/06/28 04:58:37;;;;;;;13.70;12.43;;;;;;;;;;2046335;29;20226;-61
2021/06/28 04:59:37;;;;;;;14.25;13.05;;;;;;;;;;2048540;28;20163;-60
2021/06/28 05:00:37;;;;;;;12.82;11.73;;;;;;;;;;2043299;28;20202;-60
2021/06/28 05:01:37;;;;;;;14.20;12.77;;;;;;;;;;2048961;29;20199;-59
2021/06/28 05:02:38;;;;;;;18.50;13.10;;;;;;;;;;2049408;28;20194;-62
2021/06/28 05:03:38;;;;;;;12.98;11.93;;;;;;;;;;2056012;28;20221;-60
2021/06/28 05:04:38;;;;;;;14.20;12.90;;;;;;;;;;2041386;29;20621;-60
2021/06/28 05:05:38;;;;;;;13.38;12.07;;;;;;;;;;2048769;29;20206;-60
2021/06/28 05:06:39;;;;;;;14.20;12.80;;;;;;;;;;2047886;28;20166;-60
2021/06/28 05:07:39;;;;;;;14.55;13.05;;;;;;;;;;2047201;28;20187;-59
2021/06/28 05:08:39;;;;;;;14.98;13.48;;;;;;;;;;2050246;28;20205;-61
2021/06/28 05:09:40;;;;;;;14.50;13.10;;;;;;;;;;2041477;28;20883;-59
2021/06/28 05:10:41;;;;;;;14.90;13.60;;;;;;;;;;2042198;29;20266;-60
2021/06/28 05:11:41;;;;;;;13.77;12.52;;;;;;;;;;2043721;28;20663;-60
2021/06/28 05:12:41;;;;;;;15.27;13.02;;;;;;;;;;2048672;28;20246;-61
2021/06/28 05:13:42;;;;;;;14.25;12.90;;;;;;;;;;2044094;28;20186;-61
2021/06/28 05:14:43;;;;;;;14.98;13.63;;;;;;;;;;2043029;29;20339;-59
2021/06/28 05:15:43;;;;;;;14.50;13.30;;;;;;;;;;2041440;29;20216;-61
2021/06/28 05:16:43;;;;;;;14.85;13.55;;;;;;;;;;2043287;28;20239;-60
2021/06/28 05:17:44;;;;;;;26.45;23.65;;;;;;;;;;2043467;29;20301;-60
2021/06/28 05:18:44;;;;;;;15.02;13.63;;;;;;;;;;2049629;29;20170;-61
2021/06/28 05:19:44;;;;;;;14.23;12.90;;;;;;;;;;2042716;28;20645;-61
2021/06/28 05:20:45;;;;;;;16.80;14.68;;;;;;;;;;2049477;29;20186;-60
2021/06/28 05:21:45;;;;;;;18.48;14.68;;;;;;;;;;2042034;29;20250;-60
2021/06/28 05:22:45;;;;;;;20.25;18.25;;;;;;;;;;2042584;28;20167;-61
2021/06/28 05:23:46;;;;;;;19.92;17.85;;;;;;;;;;2041729;28;20236;-60
2021/06/28 05:24:46;;;;;;;20.65;18.65;;;;;;;;;;2049798;28;20171;-60
2021/06/28 05:25:46;;;;;;;17.25;15.55;;;;;;;;;;2066403;23;20236;-58
2021/06/28 05:26:47;;;;;;;17.45;15.82;;;;;;;;;;2072741;28;20173;-55
2021/06/28 05:27:47;;;;;;;14.82;13.43;;;;;;;;;;2075680;28;20158;-56
2021/06/28 05:28:47;;;;;;;14.48;13.13;;;;;;;;;;2070014;28;20197;-57
2021/06/28 05:29:54;;;;;;;13.88;12.48;;;;;;;;;;2071246;28;20166;-54
2021/06/28 05:30:55;;;;;;;14.38;12.95;;;;;;;;;;2071053;28;20245;-57
2021/06/28 05:31:55;;;;;;;13.48;12.32;;;;;;;;;;2071431;28;20185;-55
2021/06/28 05:32:55;;;;;;;14.43;13.13;;;;;;;;;;2072268;28;20220;-57
2021/06/28 05:33:56;;;;;;;13.68;12.48;;;;;;;;;;2072264;28;20264;-55
2021/06/28 05:34:56;;;;;;;13.50;12.30;;;;;;;;;;2073721;28;20177;-57
2021/06/28 05:35:56;;;;;;;17.48;15.98;;;;;;;;;;2079757;28;20290;-58
2021/06/28 05:36:56;;;;;;;14.73;13.32;;;;;;;;;;2073501;28;20625;-59
2021/06/28 05:37:57;;;;;;;17.05;15.57;;;;;;;;;;2075364;28;20203;-55
2021/06/28 05:38:57;;;;;;;15.68;14.27;;;;;;;;;;2079614;28;20653;-58
2021/06/28 05:39:57;;;;;;;18.75;17.08;;;;;;;;;;2068304;28;20170;-56
2021/06/28 05:40:57;;;;;;;13.63;12.43;;;;;;;;;;2070277;28;20189;-55
2021/06/28 05:41:58;;;;;;;17.80;16.23;;;;;;;;;;2067638;28;20162;-57
2021/06/28 05:42:58;;;;;;;16.42;14.85;;;;;;;;;;2071414;28;20215;-54
2021/06/28 05:43:58;;;;;;;14.30;12.90;;;;;;;;;;2070494;28;20232;-53
2021/06/28 05:44:59;;;;;;;13.73;12.48;;;;;;;;;;2070951;28;20165;-54
2021/06/28 05:45:59;;;;;;;13.48;12.30;;;;;;;;;;2070672;28;20642;-56
2021/06/28 05:46:59;;;;;;;18.42;16.58;;;;;;;;;;2070618;28;20173;-57
2021/06/28 05:47:59;;;;;;;13.88;12.57;;;;;;;;;;2072008;28;20227;-56
2021/06/28 05:49:00;;;;;;;12.48;11.38;;;;;;;;;;2073376;28;20188;-58
2021/06/28 05:50:00;;;;;;;12.95;11.85;;;;;;;;;;2071288;28;20626;-53
2021/06/28 05:51:00;;;;;;;13.30;12.10;;;;;;;;;;2070069;28;20181;-63
2021/06/28 05:52:00;;;;;;;13.13;11.93;;;;;;;;;;2073528;28;20177;-62
2021/06/28 05:53:02;;;;;;;13.10;11.88;;;;;;;;;;2071579;28;20181;-59
2021/06/28 05:54:02;;;;;;;13.68;12.27;;;;;;;;;;2073572;28;20619;-62
2021/06/28 05:55:03;;;;;;;13.57;12.38;;;;;;;;;;2074265;28;20270;-62
2021/06/28 05:56:04;;;;;;;12.98;11.98;;;;;;;;;;2071595;28;20193;-65
2021/06/28 05:57:05;;;;;;;14.55;13.15;;;;;;;;;;2070208;28;20186;-52